Bergen Ts — 9HA4477 — position and weather

sailwx.info

Track history (hours):
 
Tides and Currents Weather Stations Pressure Air Temp Water Temp Dewpoint Dewpoint Depression Visibility Wind Speed Wind Dir Waves Ship Positions

Bergen Ts

Last reported at 2017-Dec-09 12:51 UTC. Time now 2017-Dec-12 06:25 UTC.
Position N 59°06' E 004°50'.

Length 250 m; draft 11.7 m.

Type: Tanker. MMSI: 248024000.

Date/timePositionNaut miles runAvg speedWind from/ knotsBaromVisibWave heightAir tempDewpointWater temp
2017-Dec-09 12:51N 59°06' E 004°50'2 5.5
2017-Dec-09 12:30N 59°08' E 004°51'4 7.5
2017-Dec-09 12:00N 59°06' E 004°58'4 7.9
2017-Dec-09 11:30N 59°05' E 005°04'4 8.0
2017-Dec-09 11:00N 59°04' E 005°12'4 8.5
2017-Dec-09 10:30N 59°06' E 005°20'510.4
2017-Dec-09 10:00N 59°08' E 005°28'510.1
2017-Dec-09 09:30N 59°13' E 005°32'4 7.0
2017-Dec-09 09:00N 59°16' E 005°29'0 0.2
2017-Dec-09 08:30N 59°16' E 005°29'0 0.0
2017-Dec-09 08:00N 59°16' E 005°29'0 0.0
2017-Dec-09 07:30N 59°16' E 005°29'0 0.0
2017-Dec-09 06:57N 59°16' E 005°29'0 0.0
2017-Dec-09 06:30N 59°16' E 005°29'0 0.0
2017-Dec-09 06:00N 59°16' E 005°29'0 0.0
2017-Dec-09 05:30N 59°16' E 005°29'0 0.0
2017-Dec-09 05:00N 59°16' E 005°29'0 0.0
2017-Dec-09 04:30N 59°16' E 005°29'0 0.0
2017-Dec-09 04:00N 59°16' E 005°29'0 0.0
2017-Dec-09 03:30N 59°16' E 005°29'0 0.0
2017-Dec-09 03:00N 59°16' E 005°29'0 0.0
2017-Dec-09 02:30N 59°16' E 005°29'0 0.0
2017-Dec-09 02:00N 59°16' E 005°29'0 0.0
2017-Dec-09 01:30N 59°16' E 005°29'0 0.0
2017-Dec-09 01:00N 59°16' E 005°29'0 0.0
2017-Dec-09 00:30N 59°16' E 005°29'0 0.0
2017-Dec-09 00:00N 59°16' E 005°29'0 0.0
2017-Dec-08 23:30N 59°16' E 005°29'0 0.0
2017-Dec-08 23:00N 59°16' E 005°29'0 0.0
2017-Dec-08 22:30N 59°16' E 005°29'0 0.0
2017-Dec-08 22:00N 59°16' E 005°29'0 0.0
2017-Dec-08 21:30N 59°16' E 005°29'0 0.0
2017-Dec-08 21:00N 59°16' E 005°29'0 0.0
2017-Dec-08 20:30N 59°16' E 005°29'0 0.0
2017-Dec-08 20:00N 59°16' E 005°29'0 0.0
2017-Dec-08 19:30N 59°16' E 005°29'0 0.0
2017-Dec-08 19:00N 59°16' E 005°29'0 0.0
2017-Dec-08 18:30N 59°16' E 005°29'0 0.0
2017-Dec-08 18:00N 59°16' E 005°29'0 0.0
2017-Dec-08 17:30N 59°16' E 005°29'0 0.0
2017-Dec-08 17:00N 59°16' E 005°29'0 0.0
2017-Dec-08 16:30N 59°16' E 005°29'0 0.0
2017-Dec-08 16:00N 59°16' E 005°29'0 0.0
2017-Dec-08 15:30N 59°16' E 005°29'0 0.0
2017-Dec-08 15:00N 59°16' E 005°29'0 0.0
2017-Dec-08 14:30N 59°16' E 005°29'0 0.0
2017-Dec-08 14:00N 59°16' E 005°29'0 0.0
2017-Dec-08 13:30N 59°16' E 005°29'0 0.0
2017-Dec-08 13:00N 59°16' E 005°29'0 0.0
2017-Dec-08 12:30N 59°16' E 005°29'0 0.0
2017-Dec-08 12:00N 59°16' E 005°29'0 0.0
2017-Dec-08 11:30N 59°16' E 005°29'0 0.0
2017-Dec-08 11:00N 59°16' E 005°29'0 0.0
2017-Dec-08 10:30N 59°16' E 005°29'0 0.0
2017-Dec-08 10:00N 59°16' E 005°29'0 0.0
2017-Dec-08 09:30N 59°16' E 005°29'0 0.0
2017-Dec-08 09:00N 59°16' E 005°29'0 0.0
2017-Dec-08 08:30N 59°16' E 005°29'0 0.0
2017-Dec-08 08:00N 59°16' E 005°29'0 0.0
2017-Dec-08 07:30N 59°16' E 005°29'0 0.0
2017-Dec-08 07:00N 59°16' E 005°29'0 0.0
2017-Dec-08 06:30N 59°16' E 005°29'0 0.0
2017-Dec-08 06:00N 59°16' E 005°29'0 0.0
2017-Dec-08 05:30N 59°16' E 005°29'0 0.0
2017-Dec-08 05:00N 59°16' E 005°29'0 0.0
2017-Dec-08 04:30N 59°16' E 005°29'0 0.0
2017-Dec-08 04:00N 59°16' E 005°29'0 0.0
2017-Dec-08 03:30N 59°16' E 005°29'0 0.0
2017-Dec-08 03:00N 59°16' E 005°29'0 0.0
2017-Dec-08 02:30N 59°16' E 005°29'0 0.0
2017-Dec-08 02:00N 59°16' E 005°29'0 0.0
2017-Dec-08 01:30N 59°16' E 005°29'0 0.0
2017-Dec-08 01:00N 59°16' E 005°29'0 0.0
2017-Dec-08 00:30N 59°16' E 005°29'0 0.0
2017-Dec-08 00:00N 59°16' E 005°29'0 0.0
2017-Dec-07 23:30N 59°16' E 005°29'0 0.0
2017-Dec-07 23:00N 59°16' E 005°29'0 0.0
2017-Dec-07 22:30N 59°16' E 005°29'0 0.0
2017-Dec-07 22:00N 59°16' E 005°29'0 0.0
2017-Dec-07 21:30N 59°16' E 005°29'0 0.0
2017-Dec-07 21:00N 59°16' E 005°29'0 0.0
2017-Dec-07 20:30N 59°16' E 005°29'0 0.0
2017-Dec-07 20:00N 59°16' E 005°29'0 0.0
2017-Dec-07 19:30N 59°16' E 005°29'0 0.0
2017-Dec-07 19:00N 59°16' E 005°29'0 0.0
2017-Dec-07 18:30N 59°16' E 005°29'0 0.0
2017-Dec-07 18:00N 59°16' E 005°29'0 0.0
2017-Dec-07 17:30N 59°16' E 005°29'0 0.0
2017-Dec-07 17:00N 59°16' E 005°29'0 0.0
2017-Dec-07 16:30N 59°16' E 005°29'0 0.0
2017-Dec-07 16:00N 59°16' E 005°29'0 0.0
2017-Dec-07 15:30N 59°16' E 005°29'0 0.0
2017-Dec-07 15:00N 59°16' E 005°29'0 0.0
2017-Dec-07 14:30N 59°16' E 005°29'0 0.0
2017-Dec-07 14:00N 59°16' E 005°29'0 0.0
2017-Dec-07 13:30N 59°16' E 005°29'0 0.0
2017-Dec-07 13:00N 59°16' E 005°29'0 0.0
2017-Dec-07 12:30N 59°16' E 005°29'0 0.0
2017-Dec-07 12:00N 59°16' E 005°29'0 0.0
2017-Dec-07 11:30N 59°16' E 005°29'0 0.0
2017-Dec-07 11:00N 59°16' E 005°29'0 0.0
2017-Dec-07 10:30N 59°16' E 005°29'0 0.0
2017-Dec-07 10:00N 59°16' E 005°29'0 0.0
2017-Dec-07 09:30N 59°16' E 005°29'0 0.0
2017-Dec-07 09:00N 59°16' E 005°29'0 0.0
2017-Dec-07 08:30N 59°16' E 005°29'0 0.0
2017-Dec-07 08:00N 59°16' E 005°29'0 0.0
2017-Dec-07 07:30N 59°16' E 005°29'0 0.0
2017-Dec-07 07:00N 59°16' E 005°29'0 0.0
2017-Dec-07 06:30N 59°16' E 005°29'0 0.0
2017-Dec-07 06:00N 59°16' E 005°29'0 0.0
2017-Dec-07 05:30N 59°16' E 005°29'0 0.0
2017-Dec-07 05:00N 59°16' E 005°29'0 0.0
2017-Dec-07 04:30N 59°16' E 005°29'0 0.0
2017-Dec-07 04:00N 59°16' E 005°29'0 0.0
2017-Dec-07 03:30N 59°16' E 005°29'0 0.0
2017-Dec-07 00:11N 59°16' E 005°29'0 0.0
2017-Dec-06 23:59N 59°16' E 005°29'0 0.0
2017-Dec-06 23:29N 59°16' E 005°29'0 0.0
2017-Dec-06 22:59N 59°16' E 005°29'0 0.0
2017-Dec-06 22:29N 59°16' E 005°29'0 0.0
2017-Dec-06 21:59N 59°16' E 005°29'0 0.0
2017-Dec-06 21:29N 59°16' E 005°29'0 0.0
2017-Dec-06 20:59N 59°16' E 005°29'  
2017-Dec-04 10:29N 59°16' E 005°29'0 0.0
2017-Dec-04 09:59N 59°16' E 005°29'0 0.0
2017-Dec-04 09:29N 59°16' E 005°29'0 0.0
2017-Dec-04 08:59N 59°16' E 005°29'0 0.0
2017-Dec-04 08:29N 59°16' E 005°29'0 0.0
2017-Dec-04 07:59N 59°16' E 005°29'0 0.0
2017-Dec-04 07:29N 59°16' E 005°29'0 0.0
2017-Dec-04 06:59N 59°16' E 005°29'0 0.0
2017-Dec-04 06:29N 59°16' E 005°29'0 0.0
2017-Dec-04 05:59N 59°16' E 005°29'0 0.0
2017-Dec-04 05:29N 59°16' E 005°29'0 0.0
2017-Dec-04 04:59N 59°16' E 005°29'0 0.0
2017-Dec-04 04:29N 59°16' E 005°29'0 0.0
2017-Dec-04 03:59N 59°16' E 005°29'0 0.0
2017-Dec-04 03:29N 59°16' E 005°29'0 0.0
2017-Dec-04 02:59N 59°16' E 005°29'0 0.0
2017-Dec-04 02:29N 59°16' E 005°29'0 0.0
2017-Dec-04 01:59N 59°16' E 005°29'0 0.0
2017-Dec-04 01:29N 59°16' E 005°29'0 0.0
2017-Dec-04 00:59N 59°16' E 005°29'0 0.0
2017-Dec-04 00:29N 59°16' E 005°29'0 0.0
2017-Dec-03 23:59N 59°16' E 005°29'0 0.0
2017-Dec-03 23:29N 59°16' E 005°29'0 0.0
2017-Dec-03 22:59N 59°16' E 005°29'0 0.0
2017-Dec-03 22:29N 59°16' E 005°29'0 0.0
2017-Dec-03 21:59N 59°16' E 005°29'0 0.0
2017-Dec-03 21:29N 59°16' E 005°29'0 0.0
2017-Dec-03 20:59N 59°16' E 005°29'0 0.0
2017-Dec-03 20:29N 59°16' E 005°29'0 0.0
2017-Dec-03 19:59N 59°16' E 005°29'0 0.0
2017-Dec-03 19:29N 59°16' E 005°29'0 0.0
2017-Dec-03 18:59N 59°16' E 005°29'0 0.0
2017-Dec-03 18:29N 59°16' E 005°29'0 0.0
2017-Dec-03 17:59N 59°16' E 005°29'0 0.0
2017-Dec-03 17:29N 59°16' E 005°29'0 0.0
2017-Dec-03 16:59N 59°16' E 005°29'0 0.0
2017-Dec-03 16:29N 59°16' E 005°29'0 0.0
2017-Dec-03 15:59N 59°16' E 005°29'0 0.0
2017-Dec-03 15:29N 59°16' E 005°29'0 0.0
2017-Dec-03 14:56N 59°16' E 005°29'0 0.0
2017-Dec-03 14:29N 59°16' E 005°29'0 0.0
2017-Dec-03 13:59N 59°16' E 005°29'0 0.0
2017-Dec-03 13:29N 59°16' E 005°29'0 0.0
2017-Dec-03 12:59N 59°16' E 005°29'0 0.0
2017-Dec-03 12:29N 59°16' E 005°29'0 0.0
2017-Dec-03 11:59N 59°16' E 005°29'0 0.0
2017-Dec-03 11:29N 59°16' E 005°29'0 0.0
2017-Dec-03 10:59N 59°16' E 005°29'0 0.0
2017-Dec-03 10:29N 59°16' E 005°29'0 0.0
2017-Dec-03 09:59N 59°16' E 005°29'0 0.0
2017-Dec-03 09:29N 59°16' E 005°29'0 0.0
2017-Dec-03 08:59N 59°16' E 005°29'0 0.0
2017-Dec-03 08:29N 59°16' E 005°29'0 0.0
2017-Dec-03 07:59N 59°16' E 005°29'0 0.0
2017-Dec-03 07:29N 59°16' E 005°29'0 0.0
2017-Dec-03 06:59N 59°16' E 005°29'0 0.0
2017-Dec-03 06:29N 59°16' E 005°29'0 0.0
2017-Dec-03 05:59N 59°16' E 005°29'0 0.0
2017-Dec-03 05:29N 59°16' E 005°29'0 0.0
2017-Dec-03 04:59N 59°16' E 005°29'0 0.0
2017-Dec-03 04:29N 59°16' E 005°29'0 0.0
2017-Dec-03 03:59N 59°16' E 005°29'0 0.0
2017-Dec-03 03:29N 59°16' E 005°29'0 0.0
2017-Dec-03 02:59N 59°16' E 005°29'0 0.0
2017-Dec-03 02:29N 59°16' E 005°29'0 0.0
2017-Dec-03 01:59N 59°16' E 005°29'0 0.0
2017-Dec-03 01:29N 59°16' E 005°29'0 0.0
2017-Dec-03 00:59N 59°16' E 005°29'0 0.0
2017-Dec-03 00:29N 59°16' E 005°29'0 0.0
2017-Dec-02 23:59N 59°16' E 005°29'0 0.0
2017-Dec-02 23:29N 59°16' E 005°29'0 0.0
2017-Dec-02 22:59N 59°16' E 005°29'0 0.0
2017-Dec-02 22:29N 59°16' E 005°29'0 0.0
2017-Dec-02 21:59N 59°16' E 005°29'0 0.0
2017-Dec-02 21:29N 59°16' E 005°29'0 0.0
2017-Dec-02 20:59N 59°16' E 005°29'0 0.0
2017-Dec-02 20:29N 59°16' E 005°29'0 0.0
2017-Dec-02 19:59N 59°16' E 005°29'0 0.0
2017-Dec-02 19:29N 59°16' E 005°29'0 0.0
2017-Dec-02 18:59N 59°16' E 005°29'0 0.0
2017-Dec-02 18:29N 59°16' E 005°29'0 0.0
2017-Dec-02 17:59N 59°16' E 005°29'0 0.0
2017-Dec-02 17:29N 59°16' E 005°29'0 0.0
2017-Dec-02 16:59N 59°16' E 005°29'0 0.0
2017-Dec-02 16:29N 59°16' E 005°29'0 0.0
2017-Dec-02 15:59N 59°16' E 005°29'0 0.0
2017-Dec-02 15:29N 59°16' E 005°29'0 0.0
2017-Dec-02 14:59N 59°16' E 005°29'0 0.0
2017-Dec-02 14:29N 59°16' E 005°29'0 0.0
2017-Dec-02 13:59N 59°16' E 005°29'0 0.0
2017-Dec-02 13:29N 59°16' E 005°29'0 0.0
2017-Dec-02 12:59N 59°16' E 005°29'0 0.0
2017-Dec-02 12:29N 59°16' E 005°29'0 0.0
2017-Dec-02 11:59N 59°16' E 005°29'0 0.0
2017-Dec-02 11:29N 59°16' E 005°29'0 0.0
2017-Dec-02 10:59N 59°16' E 005°29'0 0.0
2017-Dec-02 10:29N 59°16' E 005°29'0 0.0
2017-Dec-02 09:59N 59°16' E 005°29'0 0.0
2017-Dec-02 09:29N 59°16' E 005°29'0 0.0
2017-Dec-02 08:59N 59°16' E 005°29'0 0.0
2017-Dec-02 08:29N 59°16' E 005°29'0 0.0
2017-Dec-02 07:59N 59°16' E 005°29'0 0.0
2017-Dec-02 07:29N 59°16' E 005°29'0 0.0
2017-Dec-02 06:59N 59°16' E 005°29'0 0.0
2017-Dec-02 06:29N 59°16' E 005°29'0 0.0
2017-Dec-02 05:59N 59°16' E 005°29'0 0.0
2017-Dec-02 05:29N 59°16' E 005°29'0 0.0
2017-Dec-02 04:59N 59°16' E 005°29'0 0.0
2017-Dec-02 04:29N 59°16' E 005°29'0 0.0
2017-Dec-02 03:59N 59°16' E 005°29'0 0.0
2017-Dec-02 03:29N 59°16' E 005°29'0 0.0
2017-Dec-02 02:59N 59°16' E 005°29'0 0.0
2017-Dec-02 02:29N 59°16' E 005°29'0 0.0
2017-Dec-02 01:59N 59°16' E 005°29'0 0.0
2017-Dec-02 01:29N 59°16' E 005°29'0 0.0
2017-Dec-02 00:59N 59°16' E 005°29'0 0.0
2017-Dec-02 00:29N 59°16' E 005°29'0 0.0
2017-Dec-01 23:59N 59°16' E 005°29'0 0.0
2017-Dec-01 23:29N 59°16' E 005°29'0 0.0
2017-Dec-01 22:59N 59°16' E 005°29'0 0.0
2017-Dec-01 22:29N 59°16' E 005°29'0 0.0
2017-Dec-01 21:59N 59°16' E 005°29'0 0.0
2017-Dec-01 21:29N 59°16' E 005°29'0 0.0
2017-Dec-01 20:59N 59°16' E 005°29'0 0.0
2017-Dec-01 20:29N 59°16' E 005°29'0 0.0
2017-Dec-01 19:59N 59°16' E 005°29'0 0.0
2017-Dec-01 19:29N 59°16' E 005°29'0 0.0
2017-Dec-01 18:59N 59°16' E 005°29'0 0.0
2017-Dec-01 18:29N 59°16' E 005°29'0 0.0
2017-Dec-01 17:59N 59°16' E 005°29'0 0.0
2017-Dec-01 17:29N 59°16' E 005°29'0 0.0
2017-Dec-01 16:59N 59°16' E 005°29'0 0.0
2017-Dec-01 16:29N 59°16' E 005°29'0 0.0
2017-Dec-01 15:59N 59°16' E 005°29'0 0.0
2017-Dec-01 15:29N 59°16' E 005°29'0 0.0
2017-Dec-01 14:59N 59°16' E 005°29'0 0.0
2017-Dec-01 14:29N 59°16' E 005°29'0 0.0
2017-Dec-01 13:59N 59°16' E 005°29'0 0.0
2017-Dec-01 13:29N 59°16' E 005°29'0 0.0
2017-Dec-01 12:59N 59°16' E 005°29'0 0.0
2017-Dec-01 12:29N 59°16' E 005°29'0 0.0
2017-Dec-01 11:59N 59°16' E 005°29'0 0.0
2017-Dec-01 11:29N 59°16' E 005°29'0 0.0
2017-Dec-01 10:59N 59°16' E 005°29'0 0.0
2017-Dec-01 10:29N 59°16' E 005°29'0 0.0
2017-Dec-01 09:59N 59°16' E 005°29'0 0.0
2017-Dec-01 09:29N 59°16' E 005°29'0 0.0
2017-Dec-01 08:59N 59°16' E 005°29'0 0.0
2017-Dec-01 08:29N 59°16' E 005°29'0 0.0
2017-Dec-01 07:59N 59°16' E 005°29'0 0.0
2017-Dec-01 07:29N 59°16' E 005°29'0 0.0
2017-Dec-01 06:56N 59°16' E 005°29'0 0.0
2017-Dec-01 06:29N 59°16' E 005°29'0 0.0
2017-Dec-01 05:59N 59°16' E 005°29'0 0.0
2017-Dec-01 05:29N 59°16' E 005°29'0 0.0
2017-Dec-01 04:59N 59°16' E 005°29'0 0.0
2017-Dec-01 04:29N 59°16' E 005°29'0 0.0
2017-Dec-01 03:59N 59°16' E 005°29'0 0.0
2017-Dec-01 03:29N 59°16' E 005°29'0 0.0
2017-Dec-01 02:59N 59°16' E 005°29'0 0.0
2017-Dec-01 02:29N 59°16' E 005°29'0 0.0
2017-Dec-01 01:59N 59°16' E 005°29'0 0.0
2017-Dec-01 01:29N 59°16' E 005°29'0 0.4
2017-Dec-01 01:00N 59°16' E 005°30'1 2.4
2017-Dec-01 00:30N 59°15' E 005°31'5 9.2
2017-Dec-01 00:00N 59°11' E 005°32'612.3
2017-Nov-30 23:30N 59°06' E 005°25'713.5
2017-Nov-30 23:00N 59°03' E 005°13'4 8.5
2017-Nov-30 22:30N 58°59' E 005°08'5 9.4
2017-Nov-30 22:00N 58°55' E 005°04'2 5.0
2017-Nov-30 21:30N 58°53' E 005°02'3 5.0
2017-Nov-30 21:00N 58°50' E 005°00'3 4.9
2017-Nov-30 20:25N 58°48' E 005°01'511.2
2017-Nov-30 19:57N 58°43' E 005°03'612.5
2017-Nov-30 19:28N 58°37' E 005°06'612.1
2017-Nov-30 19:00N 58°31' E 005°09'611.7
2017-Nov-30 18:30N 58°26' E 005°15'612.4
2017-Nov-30 18:00N 58°22' E 005°23'612.5
2017-Nov-30 17:30N 58°18' E 005°32'612.4
2017-Nov-30 17:01N 58°14' E 005°41'612.5
2017-Nov-30 16:30N 58°10' E 005°50'612.3
2017-Nov-30 16:00N 58°06' E 005°59'612.1
2017-Nov-30 15:31N 58°02' E 006°07'612.6
2017-Nov-30 15:00N 57°57' E 006°16'713.1
2017-Nov-30 14:31N 57°53' E 006°25'712.9
2017-Nov-30 13:59N 57°49' E 006°35'612.8
2017-Nov-30 13:30N 57°48' E 006°47'613.2
2017-Nov-30 13:00N 57°47' E 006°59'713.6
2017-Nov-30 12:30N 57°46' E 007°12'713.2
2017-Nov-30 12:00N 57°46' E 007°24'713.2
2017-Nov-30 11:30N 57°46' E 007°37'713.1
2017-Nov-30 11:00N 57°46' E 007°49'612.8
2017-Nov-30 10:30N 57°46' E 008°01'612.9
2017-Nov-30 10:00N 57°46' E 008°13'712.7
2017-Nov-30 09:28N 57°47' E 008°26'6412.7
2017-Nov-30 04:24N 57°50' E 010°26'612.5
2017-Nov-30 03:53N 57°48' E 010°38'411.7
2017-Nov-30 03:31N 57°47' E 010°46'5 9.1
2017-Nov-30 03:01N 57°43' E 010°41'2 4.3
2017-Nov-30 02:31N 57°41' E 010°38'0 0.2
2017-Nov-30 01:58N 57°41' E 010°38'0 0.0
2017-Nov-30 01:25N 57°41' E 010°38'0 0.0
2017-Nov-30 00:37N 57°41' E 010°38'0 0.1
2017-Nov-30 00:25N 57°41' E 010°38'0 0.1
2017-Nov-29 23:58N 57°41' E 010°38'0 0.1
2017-Nov-29 23:25N 57°41' E 010°38'0 0.1
2017-Nov-29 22:58N 57°41' E 010°38'0 0.0
2017-Nov-29 22:10N 57°41' E 010°38'0 0.0
2017-Nov-29 21:49N 57°41' E 010°38'0 0.1
2017-Nov-29 21:16N 57°41' E 010°38'0 0.1
2017-Nov-29 20:58N 57°41' E 010°38'0 0.1
2017-Nov-29 19:55N 57°41' E 010°38'0 0.0
2017-Nov-29 19:28N 57°41' E 010°38'0 0.1
2017-Nov-29 18:55N 57°41' E 010°38'0 0.0
2017-Nov-29 18:28N 57°41' E 010°38'0 0.1
2017-Nov-29 17:58N 57°41' E 010°38'0 0.0
2017-Nov-29 17:28N 57°41' E 010°38'0 0.1
2017-Nov-29 16:58N 57°41' E 010°38'0 0.0
2017-Nov-29 16:28N 57°41' E 010°38'0 0.0
2017-Nov-29 15:55N 57°41' E 010°38'0 0.0
2017-Nov-29 15:19N 57°41' E 010°38'0 0.1
2017-Nov-29 14:58N 57°41' E 010°38'0 0.1
2017-Nov-29 14:19N 57°41' E 010°38'0 0.1
2017-Nov-29 13:46N 57°41' E 010°38'0 0.0
2017-Nov-29 13:25N 57°41' E 010°38'0 0.0
2017-Nov-29 12:58N 57°41' E 010°38'  
Track history (hours):
 
Tides and Currents Weather Stations Pressure Air Temp Water Temp Dewpoint Dewpoint Depression Visibility Wind Speed Wind Dir Waves Ship Positions

Bergen Ts

Last reported at 2017-Dec-09 12:51 UTC. Time now 2017-Dec-12 06:25 UTC.
Position N 59°06' E 004°50'.

Length 250 m; draft 11.7 m.

Type: Tanker. MMSI: 248024000.

Date/timePositionNaut miles runAvg speedWind from/ knotsBaromVisibWave heightAir tempDewpointWater temp
2017-Dec-09 12:51N 59°06' E 004°50'2 5.5
2017-Dec-09 12:30N 59°08' E 004°51'4 7.5
2017-Dec-09 12:00N 59°06' E 004°58'4 7.9
2017-Dec-09 11:30N 59°05' E 005°04'4 8.0
2017-Dec-09 11:00N 59°04' E 005°12'4 8.5
2017-Dec-09 10:30N 59°06' E 005°20'510.4
2017-Dec-09 10:00N 59°08' E 005°28'510.1
2017-Dec-09 09:30N 59°13' E 005°32'4 7.0
2017-Dec-09 09:00N 59°16' E 005°29'0 0.2
2017-Dec-09 08:30N 59°16' E 005°29'0 0.0
2017-Dec-09 08:00N 59°16' E 005°29'0 0.0
2017-Dec-09 07:30N 59°16' E 005°29'0 0.0
2017-Dec-09 06:57N 59°16' E 005°29'0 0.0
2017-Dec-09 06:30N 59°16' E 005°29'0 0.0
2017-Dec-09 06:00N 59°16' E 005°29'0 0.0
2017-Dec-09 05:30N 59°16' E 005°29'0 0.0
2017-Dec-09 05:00N 59°16' E 005°29'0 0.0
2017-Dec-09 04:30N 59°16' E 005°29'0 0.0
2017-Dec-09 04:00N 59°16' E 005°29'0 0.0
2017-Dec-09 03:30N 59°16' E 005°29'0 0.0
2017-Dec-09 03:00N 59°16' E 005°29'0 0.0
2017-Dec-09 02:30N 59°16' E 005°29'0 0.0
2017-Dec-09 02:00N 59°16' E 005°29'0 0.0
2017-Dec-09 01:30N 59°16' E 005°29'0 0.0
2017-Dec-09 01:00N 59°16' E 005°29'0 0.0
2017-Dec-09 00:30N 59°16' E 005°29'0 0.0
2017-Dec-09 00:00N 59°16' E 005°29'0 0.0
2017-Dec-08 23:30N 59°16' E 005°29'0 0.0
2017-Dec-08 23:00N 59°16' E 005°29'0 0.0
2017-Dec-08 22:30N 59°16' E 005°29'0 0.0
2017-Dec-08 22:00N 59°16' E 005°29'0 0.0
2017-Dec-08 21:30N 59°16' E 005°29'0 0.0
2017-Dec-08 21:00N 59°16' E 005°29'0 0.0
2017-Dec-08 20:30N 59°16' E 005°29'0 0.0
2017-Dec-08 20:00N 59°16' E 005°29'0 0.0
2017-Dec-08 19:30N 59°16' E 005°29'0 0.0
2017-Dec-08 19:00N 59°16' E 005°29'0 0.0
2017-Dec-08 18:30N 59°16' E 005°29'0 0.0
2017-Dec-08 18:00N 59°16' E 005°29'0 0.0
2017-Dec-08 17:30N 59°16' E 005°29'0 0.0
2017-Dec-08 17:00N 59°16' E 005°29'0 0.0
2017-Dec-08 16:30N 59°16' E 005°29'0 0.0
2017-Dec-08 16:00N 59°16' E 005°29'0 0.0
2017-Dec-08 15:30N 59°16' E 005°29'0 0.0
2017-Dec-08 15:00N 59°16' E 005°29'0 0.0
2017-Dec-08 14:30N 59°16' E 005°29'0 0.0
2017-Dec-08 14:00N 59°16' E 005°29'0 0.0
2017-Dec-08 13:30N 59°16' E 005°29'0 0.0
2017-Dec-08 13:00N 59°16' E 005°29'0 0.0
2017-Dec-08 12:30N 59°16' E 005°29'0 0.0
2017-Dec-08 12:00N 59°16' E 005°29'0 0.0
2017-Dec-08 11:30N 59°16' E 005°29'0 0.0
2017-Dec-08 11:00N 59°16' E 005°29'0 0.0
2017-Dec-08 10:30N 59°16' E 005°29'0 0.0
2017-Dec-08 10:00N 59°16' E 005°29'0 0.0
2017-Dec-08 09:30N 59°16' E 005°29'0 0.0
2017-Dec-08 09:00N 59°16' E 005°29'0 0.0
2017-Dec-08 08:30N 59°16' E 005°29'0 0.0
2017-Dec-08 08:00N 59°16' E 005°29'0 0.0
2017-Dec-08 07:30N 59°16' E 005°29'0 0.0
2017-Dec-08 07:00N 59°16' E 005°29'0 0.0
2017-Dec-08 06:30N 59°16' E 005°29'0 0.0
2017-Dec-08 06:00N 59°16' E 005°29'0 0.0
2017-Dec-08 05:30N 59°16' E 005°29'0 0.0
2017-Dec-08 05:00N 59°16' E 005°29'0 0.0
2017-Dec-08 04:30N 59°16' E 005°29'0 0.0
2017-Dec-08 04:00N 59°16' E 005°29'0 0.0
2017-Dec-08 03:30N 59°16' E 005°29'0 0.0
2017-Dec-08 03:00N 59°16' E 005°29'0 0.0
2017-Dec-08 02:30N 59°16' E 005°29'0 0.0
2017-Dec-08 02:00N 59°16' E 005°29'0 0.0
2017-Dec-08 01:30N 59°16' E 005°29'0 0.0
2017-Dec-08 01:00N 59°16' E 005°29'0 0.0
2017-Dec-08 00:30N 59°16' E 005°29'0 0.0
2017-Dec-08 00:00N 59°16' E 005°29'0 0.0
2017-Dec-07 23:30N 59°16' E 005°29'0 0.0
2017-Dec-07 23:00N 59°16' E 005°29'0 0.0
2017-Dec-07 22:30N 59°16' E 005°29'0 0.0
2017-Dec-07 22:00N 59°16' E 005°29'0 0.0
2017-Dec-07 21:30N 59°16' E 005°29'0 0.0
2017-Dec-07 21:00N 59°16' E 005°29'0 0.0
2017-Dec-07 20:30N 59°16' E 005°29'0 0.0
2017-Dec-07 20:00N 59°16' E 005°29'0 0.0
2017-Dec-07 19:30N 59°16' E 005°29'0 0.0
2017-Dec-07 19:00N 59°16' E 005°29'0 0.0
2017-Dec-07 18:30N 59°16' E 005°29'0 0.0
2017-Dec-07 18:00N 59°16' E 005°29'0 0.0
2017-Dec-07 17:30N 59°16' E 005°29'0 0.0
2017-Dec-07 17:00N 59°16' E 005°29'0 0.0
2017-Dec-07 16:30N 59°16' E 005°29'0 0.0
2017-Dec-07 16:00N 59°16' E 005°29'0 0.0
2017-Dec-07 15:30N 59°16' E 005°29'0 0.0
2017-Dec-07 15:00N 59°16' E 005°29'0 0.0
2017-Dec-07 14:30N 59°16' E 005°29'0 0.0
2017-Dec-07 14:00N 59°16' E 005°29'0 0.0
2017-Dec-07 13:30N 59°16' E 005°29'0 0.0
2017-Dec-07 13:00N 59°16' E 005°29'0 0.0
2017-Dec-07 12:30N 59°16' E 005°29'0 0.0
2017-Dec-07 12:00N 59°16' E 005°29'0 0.0
2017-Dec-07 11:30N 59°16' E 005°29'0 0.0
2017-Dec-07 11:00N 59°16' E 005°29'0 0.0
2017-Dec-07 10:30N 59°16' E 005°29'0 0.0
2017-Dec-07 10:00N 59°16' E 005°29'0 0.0
2017-Dec-07 09:30N 59°16' E 005°29'0 0.0
2017-Dec-07 09:00N 59°16' E 005°29'0 0.0
2017-Dec-07 08:30N 59°16' E 005°29'0 0.0
2017-Dec-07 08:00N 59°16' E 005°29'0 0.0
2017-Dec-07 07:30N 59°16' E 005°29'0 0.0
2017-Dec-07 07:00N 59°16' E 005°29'0 0.0
2017-Dec-07 06:30N 59°16' E 005°29'0 0.0
2017-Dec-07 06:00N 59°16' E 005°29'0 0.0
2017-Dec-07 05:30N 59°16' E 005°29'0 0.0
2017-Dec-07 05:00N 59°16' E 005°29'0 0.0
2017-Dec-07 04:30N 59°16' E 005°29'0 0.0
2017-Dec-07 04:00N 59°16' E 005°29'0 0.0
2017-Dec-07 03:30N 59°16' E 005°29'0 0.0
2017-Dec-07 00:11N 59°16' E 005°29'0 0.0
2017-Dec-06 23:59N 59°16' E 005°29'0 0.0
2017-Dec-06 23:29N 59°16' E 005°29'0 0.0
2017-Dec-06 22:59N 59°16' E 005°29'0 0.0
2017-Dec-06 22:29N 59°16' E 005°29'0 0.0
2017-Dec-06 21:59N 59°16' E 005°29'0 0.0
2017-Dec-06 21:29N 59°16' E 005°29'0 0.0
2017-Dec-06 20:59N 59°16' E 005°29'  
2017-Dec-04 10:29N 59°16' E 005°29'0 0.0
2017-Dec-04 09:59N 59°16' E 005°29'0 0.0
2017-Dec-04 09:29N 59°16' E 005°29'0 0.0
2017-Dec-04 08:59N 59°16' E 005°29'0 0.0
2017-Dec-04 08:29N 59°16' E 005°29'0 0.0
2017-Dec-04 07:59N 59°16' E 005°29'0 0.0
2017-Dec-04 07:29N 59°16' E 005°29'0 0.0
2017-Dec-04 06:59N 59°16' E 005°29'0 0.0
2017-Dec-04 06:29N 59°16' E 005°29'0 0.0
2017-Dec-04 05:59N 59°16' E 005°29'0 0.0
2017-Dec-04 05:29N 59°16' E 005°29'0 0.0
2017-Dec-04 04:59N 59°16' E 005°29'0 0.0
2017-Dec-04 04:29N 59°16' E 005°29'0 0.0
2017-Dec-04 03:59N 59°16' E 005°29'0 0.0
2017-Dec-04 03:29N 59°16' E 005°29'0 0.0
2017-Dec-04 02:59N 59°16' E 005°29'0 0.0
2017-Dec-04 02:29N 59°16' E 005°29'0 0.0
2017-Dec-04 01:59N 59°16' E 005°29'0 0.0
2017-Dec-04 01:29N 59°16' E 005°29'0 0.0
2017-Dec-04 00:59N 59°16' E 005°29'0 0.0
2017-Dec-04 00:29N 59°16' E 005°29'0 0.0
2017-Dec-03 23:59N 59°16' E 005°29'0 0.0
2017-Dec-03 23:29N 59°16' E 005°29'0 0.0
2017-Dec-03 22:59N 59°16' E 005°29'0 0.0
2017-Dec-03 22:29N 59°16' E 005°29'0 0.0
2017-Dec-03 21:59N 59°16' E 005°29'0 0.0
2017-Dec-03 21:29N 59°16' E 005°29'0 0.0
2017-Dec-03 20:59N 59°16' E 005°29'0 0.0
2017-Dec-03 20:29N 59°16' E 005°29'0 0.0
2017-Dec-03 19:59N 59°16' E 005°29'0 0.0
2017-Dec-03 19:29N 59°16' E 005°29'0 0.0
2017-Dec-03 18:59N 59°16' E 005°29'0 0.0
2017-Dec-03 18:29N 59°16' E 005°29'0 0.0
2017-Dec-03 17:59N 59°16' E 005°29'0 0.0
2017-Dec-03 17:29N 59°16' E 005°29'0 0.0
2017-Dec-03 16:59N 59°16' E 005°29'0 0.0
2017-Dec-03 16:29N 59°16' E 005°29'0 0.0
2017-Dec-03 15:59N 59°16' E 005°29'0 0.0
2017-Dec-03 15:29N 59°16' E 005°29'0 0.0
2017-Dec-03 14:56N 59°16' E 005°29'0 0.0
2017-Dec-03 14:29N 59°16' E 005°29'0 0.0
2017-Dec-03 13:59N 59°16' E 005°29'0 0.0
2017-Dec-03 13:29N 59°16' E 005°29'0 0.0
2017-Dec-03 12:59N 59°16' E 005°29'0 0.0
2017-Dec-03 12:29N 59°16' E 005°29'0 0.0
2017-Dec-03 11:59N 59°16' E 005°29'0 0.0
2017-Dec-03 11:29N 59°16' E 005°29'0 0.0
2017-Dec-03 10:59N 59°16' E 005°29'0 0.0
2017-Dec-03 10:29N 59°16' E 005°29'0 0.0
2017-Dec-03 09:59N 59°16' E 005°29'0 0.0
2017-Dec-03 09:29N 59°16' E 005°29'0 0.0
2017-Dec-03 08:59N 59°16' E 005°29'0 0.0
2017-Dec-03 08:29N 59°16' E 005°29'0 0.0
2017-Dec-03 07:59N 59°16' E 005°29'0 0.0
2017-Dec-03 07:29N 59°16' E 005°29'0 0.0
2017-Dec-03 06:59N 59°16' E 005°29'0 0.0
2017-Dec-03 06:29N 59°16' E 005°29'0 0.0
2017-Dec-03 05:59N 59°16' E 005°29'0 0.0
2017-Dec-03 05:29N 59°16' E 005°29'0 0.0
2017-Dec-03 04:59N 59°16' E 005°29'0 0.0
2017-Dec-03 04:29N 59°16' E 005°29'0 0.0
2017-Dec-03 03:59N 59°16' E 005°29'0 0.0
2017-Dec-03 03:29N 59°16' E 005°29'0 0.0
2017-Dec-03 02:59N 59°16' E 005°29'0 0.0
2017-Dec-03 02:29N 59°16' E 005°29'0 0.0
2017-Dec-03 01:59N 59°16' E 005°29'0 0.0
2017-Dec-03 01:29N 59°16' E 005°29'0 0.0
2017-Dec-03 00:59N 59°16' E 005°29'0 0.0
2017-Dec-03 00:29N 59°16' E 005°29'0 0.0
2017-Dec-02 23:59N 59°16' E 005°29'0 0.0
2017-Dec-02 23:29N 59°16' E 005°29'0 0.0
2017-Dec-02 22:59N 59°16' E 005°29'0 0.0
2017-Dec-02 22:29N 59°16' E 005°29'0 0.0
2017-Dec-02 21:59N 59°16' E 005°29'0 0.0
2017-Dec-02 21:29N 59°16' E 005°29'0 0.0
2017-Dec-02 20:59N 59°16' E 005°29'0 0.0
2017-Dec-02 20:29N 59°16' E 005°29'0 0.0
2017-Dec-02 19:59N 59°16' E 005°29'0 0.0
2017-Dec-02 19:29N 59°16' E 005°29'0 0.0
2017-Dec-02 18:59N 59°16' E 005°29'0 0.0
2017-Dec-02 18:29N 59°16' E 005°29'0 0.0
2017-Dec-02 17:59N 59°16' E 005°29'0 0.0
2017-Dec-02 17:29N 59°16' E 005°29'0 0.0
2017-Dec-02 16:59N 59°16' E 005°29'0 0.0
2017-Dec-02 16:29N 59°16' E 005°29'0 0.0
2017-Dec-02 15:59N 59°16' E 005°29'0 0.0
2017-Dec-02 15:29N 59°16' E 005°29'0 0.0
2017-Dec-02 14:59N 59°16' E 005°29'0 0.0
2017-Dec-02 14:29N 59°16' E 005°29'0 0.0
2017-Dec-02 13:59N 59°16' E 005°29'0 0.0
2017-Dec-02 13:29N 59°16' E 005°29'0 0.0
2017-Dec-02 12:59N 59°16' E 005°29'0 0.0
2017-Dec-02 12:29N 59°16' E 005°29'0 0.0
2017-Dec-02 11:59N 59°16' E 005°29'0 0.0
2017-Dec-02 11:29N 59°16' E 005°29'0 0.0
2017-Dec-02 10:59N 59°16' E 005°29'0 0.0
2017-Dec-02 10:29N 59°16' E 005°29'0 0.0
2017-Dec-02 09:59N 59°16' E 005°29'0 0.0
2017-Dec-02 09:29N 59°16' E 005°29'0 0.0
2017-Dec-02 08:59N 59°16' E 005°29'0 0.0
2017-Dec-02 08:29N 59°16' E 005°29'0 0.0
2017-Dec-02 07:59N 59°16' E 005°29'0 0.0
2017-Dec-02 07:29N 59°16' E 005°29'0 0.0
2017-Dec-02 06:59N 59°16' E 005°29'0 0.0
2017-Dec-02 06:29N 59°16' E 005°29'0 0.0
2017-Dec-02 05:59N 59°16' E 005°29'0 0.0
2017-Dec-02 05:29N 59°16' E 005°29'0 0.0
2017-Dec-02 04:59N 59°16' E 005°29'0 0.0
2017-Dec-02 04:29N 59°16' E 005°29'0 0.0
2017-Dec-02 03:59N 59°16' E 005°29'0 0.0
2017-Dec-02 03:29N 59°16' E 005°29'0 0.0
2017-Dec-02 02:59N 59°16' E 005°29'0 0.0
2017-Dec-02 02:29N 59°16' E 005°29'0 0.0
2017-Dec-02 01:59N 59°16' E 005°29'0 0.0
2017-Dec-02 01:29N 59°16' E 005°29'0 0.0
2017-Dec-02 00:59N 59°16' E 005°29'0 0.0
2017-Dec-02 00:29N 59°16' E 005°29'0 0.0
2017-Dec-01 23:59N 59°16' E 005°29'0 0.0
2017-Dec-01 23:29N 59°16' E 005°29'0 0.0
2017-Dec-01 22:59N 59°16' E 005°29'0 0.0
2017-Dec-01 22:29N 59°16' E 005°29'0 0.0
2017-Dec-01 21:59N 59°16' E 005°29'0 0.0
2017-Dec-01 21:29N 59°16' E 005°29'0 0.0
2017-Dec-01 20:59N 59°16' E 005°29'0 0.0
2017-Dec-01 20:29N 59°16' E 005°29'0 0.0
2017-Dec-01 19:59N 59°16' E 005°29'0 0.0
2017-Dec-01 19:29N 59°16' E 005°29'0 0.0
2017-Dec-01 18:59N 59°16' E 005°29'0 0.0
2017-Dec-01 18:29N 59°16' E 005°29'0 0.0
2017-Dec-01 17:59N 59°16' E 005°29'0 0.0
2017-Dec-01 17:29N 59°16' E 005°29'0 0.0
2017-Dec-01 16:59N 59°16' E 005°29'0 0.0
2017-Dec-01 16:29N 59°16' E 005°29'0 0.0
2017-Dec-01 15:59N 59°16' E 005°29'0 0.0
2017-Dec-01 15:29N 59°16' E 005°29'0 0.0
2017-Dec-01 14:59N 59°16' E 005°29'0 0.0
2017-Dec-01 14:29N 59°16' E 005°29'0 0.0
2017-Dec-01 13:59N 59°16' E 005°29'0 0.0
2017-Dec-01 13:29N 59°16' E 005°29'0 0.0
2017-Dec-01 12:59N 59°16' E 005°29'0 0.0
2017-Dec-01 12:29N 59°16' E 005°29'0 0.0
2017-Dec-01 11:59N 59°16' E 005°29'0 0.0
2017-Dec-01 11:29N 59°16' E 005°29'0 0.0
2017-Dec-01 10:59N 59°16' E 005°29'0 0.0
2017-Dec-01 10:29N 59°16' E 005°29'0 0.0
2017-Dec-01 09:59N 59°16' E 005°29'0 0.0
2017-Dec-01 09:29N 59°16' E 005°29'0 0.0
2017-Dec-01 08:59N 59°16' E 005°29'0 0.0
2017-Dec-01 08:29N 59°16' E 005°29'0 0.0
2017-Dec-01 07:59N 59°16' E 005°29'0 0.0
2017-Dec-01 07:29N 59°16' E 005°29'0 0.0
2017-Dec-01 06:56N 59°16' E 005°29'0 0.0
2017-Dec-01 06:29N 59°16' E 005°29'0 0.0
2017-Dec-01 05:59N 59°16' E 005°29'0 0.0
2017-Dec-01 05:29N 59°16' E 005°29'0 0.0
2017-Dec-01 04:59N 59°16' E 005°29'0 0.0
2017-Dec-01 04:29N 59°16' E 005°29'0 0.0
2017-Dec-01 03:59N 59°16' E 005°29'0 0.0
2017-Dec-01 03:29N 59°16' E 005°29'0 0.0
2017-Dec-01 02:59N 59°16' E 005°29'0 0.0
2017-Dec-01 02:29N 59°16' E 005°29'0 0.0
2017-Dec-01 01:59N 59°16' E 005°29'0 0.0
2017-Dec-01 01:29N 59°16' E 005°29'0 0.4
2017-Dec-01 01:00N 59°16' E 005°30'1 2.4
2017-Dec-01 00:30N 59°15' E 005°31'5 9.2
2017-Dec-01 00:00N 59°11' E 005°32'612.3
2017-Nov-30 23:30N 59°06' E 005°25'713.5
2017-Nov-30 23:00N 59°03' E 005°13'4 8.5
2017-Nov-30 22:30N 58°59' E 005°08'5 9.4
2017-Nov-30 22:00N 58°55' E 005°04'2 5.0
2017-Nov-30 21:30N 58°53' E 005°02'3 5.0
2017-Nov-30 21:00N 58°50' E 005°00'3 4.9
2017-Nov-30 20:25N 58°48' E 005°01'511.2
2017-Nov-30 19:57N 58°43' E 005°03'612.5
2017-Nov-30 19:28N 58°37' E 005°06'612.1
2017-Nov-30 19:00N 58°31' E 005°09'611.7
2017-Nov-30 18:30N 58°26' E 005°15'612.4
2017-Nov-30 18:00N 58°22' E 005°23'612.5
2017-Nov-30 17:30N 58°18' E 005°32'612.4
2017-Nov-30 17:01N 58°14' E 005°41'612.5
2017-Nov-30 16:30N 58°10' E 005°50'612.3
2017-Nov-30 16:00N 58°06' E 005°59'612.1
2017-Nov-30 15:31N 58°02' E 006°07'612.6
2017-Nov-30 15:00N 57°57' E 006°16'713.1
2017-Nov-30 14:31N 57°53' E 006°25'712.9
2017-Nov-30 13:59N 57°49' E 006°35'612.8
2017-Nov-30 13:30N 57°48' E 006°47'613.2
2017-Nov-30 13:00N 57°47' E 006°59'713.6
2017-Nov-30 12:30N 57°46' E 007°12'713.2
2017-Nov-30 12:00N 57°46' E 007°24'713.2
2017-Nov-30 11:30N 57°46' E 007°37'713.1
2017-Nov-30 11:00N 57°46' E 007°49'612.8
2017-Nov-30 10:30N 57°46' E 008°01'612.9
2017-Nov-30 10:00N 57°46' E 008°13'712.7
2017-Nov-30 09:28N 57°47' E 008°26'6412.7
2017-Nov-30 04:24N 57°50' E 010°26'612.5
2017-Nov-30 03:53N 57°48' E 010°38'411.7
2017-Nov-30 03:31N 57°47' E 010°46'5 9.1
2017-Nov-30 03:01N 57°43' E 010°41'2 4.3
2017-Nov-30 02:31N 57°41' E 010°38'0 0.2
2017-Nov-30 01:58N 57°41' E 010°38'0 0.0
2017-Nov-30 01:25N 57°41' E 010°38'0 0.0
2017-Nov-30 00:37N 57°41' E 010°38'0 0.1
2017-Nov-30 00:25N 57°41' E 010°38'0 0.1
2017-Nov-29 23:58N 57°41' E 010°38'0 0.1
2017-Nov-29 23:25N 57°41' E 010°38'0 0.1
2017-Nov-29 22:58N 57°41' E 010°38'0 0.0
2017-Nov-29 22:10N 57°41' E 010°38'0 0.0
2017-Nov-29 21:49N 57°41' E 010°38'0 0.1
2017-Nov-29 21:16N 57°41' E 010°38'0 0.1
2017-Nov-29 20:58N 57°41' E 010°38'0 0.1
2017-Nov-29 19:55N 57°41' E 010°38'0 0.0
2017-Nov-29 19:28N 57°41' E 010°38'0 0.1
2017-Nov-29 18:55N 57°41' E 010°38'0 0.0
2017-Nov-29 18:28N 57°41' E 010°38'0 0.1
2017-Nov-29 17:58N 57°41' E 010°38'0 0.0
2017-Nov-29 17:28N 57°41' E 010°38'0 0.1
2017-Nov-29 16:58N 57°41' E 010°38'0 0.0
2017-Nov-29 16:28N 57°41' E 010°38'0 0.0
2017-Nov-29 15:55N 57°41' E 010°38'0 0.0
2017-Nov-29 15:19N 57°41' E 010°38'0 0.1
2017-Nov-29 14:58N 57°41' E 010°38'0 0.1
2017-Nov-29 14:19N 57°41' E 010°38'0 0.1
2017-Nov-29 13:46N 57°41' E 010°38'0 0.0
2017-Nov-29 13:25N 57°41' E 010°38'0 0.0
2017-Nov-29 12:58N 57°41' E 010°38'  

Dump ship's entire track history